Independence — WDD6659 — position and weather

sailwx.info

Track history (hours):
 
Tides and Currents Weather Stations Pressure Air Temp Water Temp Dewpoint Dewpoint Depression Visibility Wind Speed Wind Dir Waves Ship Positions

Independence

Owner: Sortwell, Inc. DBA AmNav Maritime Services, Oakland, CA. More information available from US FCC via Universal Licensing System and Coast Guard Vessel Documentation Center.

Last reported at 2015-Feb-27 07:20 UTC. Time now 2015-Feb-27 13:09 UTC.
Position N 33°44' W 118°17'.

Length 24 m; draft 4.9 m.

Type: Tug. MMSI: 367175860.

Date/timePositionNaut miles runAvg speedWind from/ knotsBaromVisibWave heightAir tempDewpointWater temp
2015-Feb-27 07:20N 33°44' W 118°17'0 0.0
2015-Feb-27 06:13N 33°44' W 118°17'0 0.0
2015-Feb-27 05:33N 33°44' W 118°17'0 0.0
2015-Feb-27 04:28N 33°44' W 118°17'0 0.0
2015-Feb-27 00:32N 33°44' W 118°17'0 0.0
2015-Feb-26 21:23N 33°44' W 118°17'2 0.4
2015-Feb-26 16:32N 33°46' W 118°16'0 0.0
2015-Feb-26 15:33N 33°46' W 118°16'2 2.2
2015-Feb-26 14:31N 33°43' W 118°16'0 0.2
2015-Feb-26 12:32N 33°44' W 118°17'0 0.0
2015-Feb-26 09:33N 33°44' W 118°17'0 0.0
2015-Feb-26 08:31N 33°44' W 118°17'0 0.0
2015-Feb-26 07:26N 33°44' W 118°17'0 0.0
2015-Feb-26 06:31N 33°44' W 118°17'0 0.0
2015-Feb-26 05:33N 33°44' W 118°17'0 0.0
2015-Feb-26 04:28N 33°44' W 118°17'0 0.0
2015-Feb-26 02:31N 33°44' W 118°17'3 3.4
2015-Feb-26 01:33N 33°46' W 118°14'2 0.9
2015-Feb-25 23:17N 33°44' W 118°13'0 0.4
2015-Feb-25 22:32N 33°44' W 118°12'2 1.9
2015-Feb-25 21:33N 33°43' W 118°14'2 2.2
2015-Feb-25 20:33N 33°44' W 118°17'2 0.5
2015-Feb-25 16:15N 33°46' W 118°17'2 1.2
2015-Feb-25 14:28N 33°44' W 118°16'1 0.4
2015-Feb-25 12:26N 33°45' W 118°16'0 0.1
2015-Feb-25 11:33N 33°45' W 118°16'1 0.1
2015-Feb-25 04:29N 33°44' W 118°17'0 0.0
2015-Feb-25 03:32N 33°44' W 118°17'0 0.0
2015-Feb-25 01:28N 33°44' W 118°17'0 0.0
2015-Feb-25 00:32N 33°44' W 118°17'0 0.0
2015-Feb-24 23:31N 33°44' W 118°17'5 0.2
2015-Feb-24 03:16N 33°44' W 118°11'0 0.2
2015-Feb-24 02:32N 33°44' W 118°11'1 1.0
2015-Feb-24 01:10N 33°43' W 118°12'4 0.2
2015-Feb-23 08:29N 33°45' W 118°16'1 1.1
2015-Feb-23 07:34N 33°46' W 118°16'1 0.0
2015-Feb-22 14:25N 33°45' W 118°16'2 2.8
2015-Feb-22 13:34N 33°46' W 118°14'3 2.0
2015-Feb-22 12:09N 33°43' W 118°13'1 0.5
2015-Feb-22 09:13N 33°45' W 118°13'1 1.1
2015-Feb-22 08:34N 33°45' W 118°13'3 1.3
2015-Feb-22 06:28N 33°43' W 118°11'2 2.7
2015-Feb-22 05:33N 33°45' W 118°13'0 0.1
2015-Feb-22 04:33N 33°45' W 118°13'3 0.2
2015-Feb-21 11:31N 33°45' W 118°16'0 0.3
2015-Feb-21 10:33N 33°45' W 118°16'3 0.5
2015-Feb-21 04:27N 33°44' W 118°12'4 0.4
2015-Feb-20 20:13N 33°44' W 118°17'2 0.6
2015-Feb-20 17:23N 33°45' W 118°16'0 0.4
2015-Feb-20 16:33N 33°46' W 118°16'3 1.2
2015-Feb-20 14:10N 33°45' W 118°12'1 1.8
2015-Feb-20 13:33N 33°44' W 118°12'2 2.1
2015-Feb-20 12:33N 33°45' W 118°13'0 0.1
2015-Feb-20 11:33N 33°45' W 118°13'3 2.5
2015-Feb-20 10:29N 33°44' W 118°11'1 1.2
2015-Feb-20 09:32N 33°44' W 118°12'2 1.8
2015-Feb-20 08:31N 33°45' W 118°13'3 0.5
2015-Feb-20 01:21N 33°44' W 118°17'2 0.2
2015-Feb-19 17:09N 33°43' W 118°14'3 2.6
2015-Feb-19 16:03N 33°45' W 118°16'0 0.0
2015-Feb-19 15:27N 33°45' W 118°16'2 0.1
2015-Feb-19 02:32N 33°44' W 118°15'0 0.1
2015-Feb-19 01:30N 33°44' W 118°15'1 1.0
2015-Feb-19 00:28N 33°44' W 118°17'2 1.9
2015-Feb-18 23:32N 33°46' W 118°15'2 2.4
2015-Feb-18 22:33N 33°44' W 118°14'3 0.1
2015-Feb-17 21:18N 33°45' W 118°16'3 1.6
2015-Feb-17 19:31N 33°45' W 118°13'0 0.1
2015-Feb-17 14:08N 33°45' W 118°12'  
Track history (hours):
 
Tides and Currents Weather Stations Pressure Air Temp Water Temp Dewpoint Dewpoint Depression Visibility Wind Speed Wind Dir Waves Ship Positions

Independence

Owner: Sortwell, Inc. DBA AmNav Maritime Services, Oakland, CA. More information available from US FCC via Universal Licensing System and Coast Guard Vessel Documentation Center.

Last reported at 2015-Feb-27 07:20 UTC. Time now 2015-Feb-27 13:09 UTC.
Position N 33°44' W 118°17'.

Length 24 m; draft 4.9 m.

Type: Tug. MMSI: 367175860.

Date/timePositionNaut miles runAvg speedWind from/ knotsBaromVisibWave heightAir tempDewpointWater temp
2015-Feb-27 07:20N 33°44' W 118°17'0 0.0
2015-Feb-27 06:13N 33°44' W 118°17'0 0.0
2015-Feb-27 05:33N 33°44' W 118°17'0 0.0
2015-Feb-27 04:28N 33°44' W 118°17'0 0.0
2015-Feb-27 00:32N 33°44' W 118°17'0 0.0
2015-Feb-26 21:23N 33°44' W 118°17'2 0.4
2015-Feb-26 16:32N 33°46' W 118°16'0 0.0
2015-Feb-26 15:33N 33°46' W 118°16'2 2.2
2015-Feb-26 14:31N 33°43' W 118°16'0 0.2
2015-Feb-26 12:32N 33°44' W 118°17'0 0.0
2015-Feb-26 09:33N 33°44' W 118°17'0 0.0
2015-Feb-26 08:31N 33°44' W 118°17'0 0.0
2015-Feb-26 07:26N 33°44' W 118°17'0 0.0
2015-Feb-26 06:31N 33°44' W 118°17'0 0.0
2015-Feb-26 05:33N 33°44' W 118°17'0 0.0
2015-Feb-26 04:28N 33°44' W 118°17'0 0.0
2015-Feb-26 02:31N 33°44' W 118°17'3 3.4
2015-Feb-26 01:33N 33°46' W 118°14'2 0.9
2015-Feb-25 23:17N 33°44' W 118°13'0 0.4
2015-Feb-25 22:32N 33°44' W 118°12'2 1.9
2015-Feb-25 21:33N 33°43' W 118°14'2 2.2
2015-Feb-25 20:33N 33°44' W 118°17'2 0.5
2015-Feb-25 16:15N 33°46' W 118°17'2 1.2
2015-Feb-25 14:28N 33°44' W 118°16'1 0.4
2015-Feb-25 12:26N 33°45' W 118°16'0 0.1
2015-Feb-25 11:33N 33°45' W 118°16'1 0.1
2015-Feb-25 04:29N 33°44' W 118°17'0 0.0
2015-Feb-25 03:32N 33°44' W 118°17'0 0.0
2015-Feb-25 01:28N 33°44' W 118°17'0 0.0
2015-Feb-25 00:32N 33°44' W 118°17'0 0.0
2015-Feb-24 23:31N 33°44' W 118°17'5 0.2
2015-Feb-24 03:16N 33°44' W 118°11'0 0.2
2015-Feb-24 02:32N 33°44' W 118°11'1 1.0
2015-Feb-24 01:10N 33°43' W 118°12'4 0.2
2015-Feb-23 08:29N 33°45' W 118°16'1 1.1
2015-Feb-23 07:34N 33°46' W 118°16'1 0.0
2015-Feb-22 14:25N 33°45' W 118°16'2 2.8
2015-Feb-22 13:34N 33°46' W 118°14'3 2.0
2015-Feb-22 12:09N 33°43' W 118°13'1 0.5
2015-Feb-22 09:13N 33°45' W 118°13'1 1.1
2015-Feb-22 08:34N 33°45' W 118°13'3 1.3
2015-Feb-22 06:28N 33°43' W 118°11'2 2.7
2015-Feb-22 05:33N 33°45' W 118°13'0 0.1
2015-Feb-22 04:33N 33°45' W 118°13'3 0.2
2015-Feb-21 11:31N 33°45' W 118°16'0 0.3
2015-Feb-21 10:33N 33°45' W 118°16'3 0.5
2015-Feb-21 04:27N 33°44' W 118°12'4 0.4
2015-Feb-20 20:13N 33°44' W 118°17'2 0.6
2015-Feb-20 17:23N 33°45' W 118°16'0 0.4
2015-Feb-20 16:33N 33°46' W 118°16'3 1.2
2015-Feb-20 14:10N 33°45' W 118°12'1 1.8
2015-Feb-20 13:33N 33°44' W 118°12'2 2.1
2015-Feb-20 12:33N 33°45' W 118°13'0 0.1
2015-Feb-20 11:33N 33°45' W 118°13'3 2.5
2015-Feb-20 10:29N 33°44' W 118°11'1 1.2
2015-Feb-20 09:32N 33°44' W 118°12'2 1.8
2015-Feb-20 08:31N 33°45' W 118°13'3 0.5
2015-Feb-20 01:21N 33°44' W 118°17'2 0.2
2015-Feb-19 17:09N 33°43' W 118°14'3 2.6
2015-Feb-19 16:03N 33°45' W 118°16'0 0.0
2015-Feb-19 15:27N 33°45' W 118°16'2 0.1
2015-Feb-19 02:32N 33°44' W 118°15'0 0.1
2015-Feb-19 01:30N 33°44' W 118°15'1 1.0
2015-Feb-19 00:28N 33°44' W 118°17'2 1.9
2015-Feb-18 23:32N 33°46' W 118°15'2 2.4
2015-Feb-18 22:33N 33°44' W 118°14'3 0.1
2015-Feb-17 21:18N 33°45' W 118°16'3 1.6
2015-Feb-17 19:31N 33°45' W 118°13'0 0.1
2015-Feb-17 14:08N 33°45' W 118°12'  

Dump ship's entire track history